sensor_id;sensor_type;location;lat;lon;timestamp;temperature;humidity
23160;DHT22;11748;50.844;4.396;2024-02-23T00:00:04;7.90;99.90
23160;DHT22;11748;50.844;4.396;2024-02-23T00:02:31;7.90;99.90
23160;DHT22;11748;50.844;4.396;2024-02-23T00:04:57;8.00;99.90
23160;DHT22;11748;50.844;4.396;2024-02-23T00:07:23;7.70;99.90
23160;DHT22;11748;50.844;4.396;2024-02-23T00:09:48;7.60;99.90
23160;DHT22;11748;50.844;4.396;2024-02-23T00:12:20;7.20;99.90
23160;DHT22;11748;50.844;4.396;2024-02-23T00:14:48;7.40;99.90
23160;DHT22;11748;50.844;4.396;2024-02-23T00:17:14;7.40;99.90
23160;DHT22;11748;50.844;4.396;2024-02-23T00:19:45;7.50;99.90
23160;DHT22;11748;50.844;4.396;2024-02-23T00:22:13;7.30;99.90
23160;DHT22;11748;50.844;4.396;2024-02-23T00:24:39;7.30;99.90
23160;DHT22;11748;50.844;4.396;2024-02-23T00:27:06;7.40;99.90
23160;DHT22;11748;50.844;4.396;2024-02-23T00:29:33;7.20;99.90
23160;DHT22;11748;50.844;4.396;2024-02-23T00:31:58;7.30;99.90
23160;DHT22;11748;50.844;4.396;2024-02-23T00:34:24;7.40;99.90
23160;DHT22;11748;50.844;4.396;2024-02-23T00:36:50;7.40;99.90
23160;DHT22;11748;50.844;4.396;2024-02-23T00:39:16;7.40;99.90
23160;DHT22;11748;50.844;4.396;2024-02-23T00:41:42;7.30;99.90
23160;DHT22;11748;50.844;4.396;2024-02-23T00:44:08;7.20;99.90
23160;DHT22;11748;50.844;4.396;2024-02-23T00:46:35;7.00;99.90
23160;DHT22;11748;50.844;4.396;2024-02-23T00:49:01;6.80;99.90
23160;DHT22;11748;50.844;4.396;2024-02-23T00:51:39;6.70;99.90
23160;DHT22;11748;50.844;4.396;2024-02-23T00:54:05;6.70;99.90
23160;DHT22;11748;50.844;4.396;2024-02-23T00:56:37;6.70;99.90
23160;DHT22;11748;50.844;4.396;2024-02-23T00:59:10;6.80;99.90
23160;DHT22;11748;50.844;4.396;2024-02-23T01:01:40;6.90;99.90
23160;DHT22;11748;50.844;4.396;2024-02-23T01:04:09;7.00;99.90
23160;DHT22;11748;50.844;4.396;2024-02-23T01:06:36;7.10;99.90
23160;DHT22;11748;50.844;4.396;2024-02-23T01:09:01;7.20;99.90
23160;DHT22;11748;50.844;4.396;2024-02-23T01:11:29;7.00;99.90
23160;DHT22;11748;50.844;4.396;2024-02-23T01:13:57;6.90;99.90
23160;DHT22;11748;50.844;4.396;2024-02-23T01:16:24;7.00;99.90
23160;DHT22;11748;50.844;4.396;2024-02-23T01:18:50;7.10;99.90
23160;DHT22;11748;50.844;4.396;2024-02-23T01:21:16;7.20;99.90
23160;DHT22;11748;50.844;4.396;2024-02-23T01:23:41;7.20;99.90
23160;DHT22;11748;50.844;4.396;2024-02-23T01:26:07;7.20;99.90
23160;DHT22;11748;50.844;4.396;2024-02-23T01:28:33;7.10;99.90
23160;DHT22;11748;50.844;4.396;2024-02-23T01:30:58;7.00;99.90
23160;DHT22;11748;50.844;4.396;2024-02-23T01:33:24;7.00;99.90
23160;DHT22;11748;50.844;4.396;2024-02-23T01:35:50;7.10;99.90
23160;DHT22;11748;50.844;4.396;2024-02-23T01:38:18;7.20;99.90
23160;DHT22;11748;50.844;4.396;2024-02-23T01:40:47;6.90;99.90
23160;DHT22;11748;50.844;4.396;2024-02-23T01:43:13;7.00;99.90
23160;DHT22;11748;50.844;4.396;2024-02-23T01:45:39;7.10;99.90
23160;DHT22;11748;50.844;4.396;2024-02-23T01:48:05;6.80;99.90
23160;DHT22;11748;50.844;4.396;2024-02-23T01:50:35;6.80;99.90
23160;DHT22;11748;50.844;4.396;2024-02-23T01:53:02;6.90;99.90
23160;DHT22;11748;50.844;4.396;2024-02-23T01:55:29;7.00;99.90
23160;DHT22;11748;50.844;4.396;2024-02-23T01:57:56;7.10;99.90
23160;DHT22;11748;50.844;4.396;2024-02-23T02:00:22;7.30;99.90
23160;DHT22;11748;50.844;4.396;2024-02-23T02:03:02;7.30;99.90
23160;DHT22;11748;50.844;4.396;2024-02-23T02:05:28;7.40;99.90
23160;DHT22;11748;50.844;4.396;2024-02-23T02:07:55;7.50;99.90
23160;DHT22;11748;50.844;4.396;2024-02-23T02:10:27;7.40;99.90
23160;DHT22;11748;50.844;4.396;2024-02-23T02:12:54;7.20;99.90
23160;DHT22;11748;50.844;4.396;2024-02-23T02:15:20;7.20;99.90
23160;DHT22;11748;50.844;4.396;2024-02-23T02:17:48;7.20;99.90
23160;DHT22;11748;50.844;4.396;2024-02-23T02:20:14;7.40;99.90
23160;DHT22;11748;50.844;4.396;2024-02-23T02:22:45;7.60;99.90
23160;DHT22;11748;50.844;4.396;2024-02-23T02:25:14;7.60;99.90
23160;DHT22;11748;50.844;4.396;2024-02-23T02:27:44;7.30;99.90
23160;DHT22;11748;50.844;4.396;2024-02-23T02:30:12;7.20;99.90
23160;DHT22;11748;50.844;4.396;2024-02-23T02:32:40;7.00;99.90
23160;DHT22;11748;50.844;4.396;2024-02-23T02:35:07;7.20;99.90
23160;DHT22;11748;50.844;4.396;2024-02-23T02:37:39;7.50;99.90
23160;DHT22;11748;50.844;4.396;2024-02-23T02:40:05;7.50;99.90
23160;DHT22;11748;50.844;4.396;2024-02-23T02:42:35;7.50;99.90
23160;DHT22;11748;50.844;4.396;2024-02-23T02:45:02;7.70;99.90
23160;DHT22;11748;50.844;4.396;2024-02-23T02:47:29;7.60;99.90
23160;DHT22;11748;50.844;4.396;2024-02-23T02:50:01;7.50;99.90
23160;DHT22;11748;50.844;4.396;2024-02-23T02:52:26;7.40;99.90
23160;DHT22;11748;50.844;4.396;2024-02-23T02:54:56;7.20;99.90
23160;DHT22;11748;50.844;4.396;2024-02-23T02:57:23;7.10;99.90
23160;DHT22;11748;50.844;4.396;2024-02-23T02:59:49;7.10;99.90
23160;DHT22;11748;50.844;4.396;2024-02-23T03:02:21;7.10;99.90
23160;DHT22;11748;50.844;4.396;2024-02-23T03:04:53;7.20;99.90
23160;DHT22;11748;50.844;4.396;2024-02-23T03:07:20;7.20;99.90
23160;DHT22;11748;50.844;4.396;2024-02-23T03:09:48;7.40;99.90
23160;DHT22;11748;50.844;4.396;2024-02-23T03:12:17;7.60;99.90
23160;DHT22;11748;50.844;4.396;2024-02-23T03:14:43;7.60;99.90
23160;DHT22;11748;50.844;4.396;2024-02-23T03:17:09;7.30;99.90
23160;DHT22;11748;50.844;4.396;2024-02-23T03:19:36;7.20;99.90
23160;DHT22;11748;50.844;4.396;2024-02-23T03:22:02;7.20;99.90
23160;DHT22;11748;50.844;4.396;2024-02-23T03:24:28;7.30;99.90
23160;DHT22;11748;50.844;4.396;2024-02-23T03:26:53;7.20;99.90
23160;DHT22;11748;50.844;4.396;2024-02-23T03:29:19;7.40;99.90
23160;DHT22;11748;50.844;4.396;2024-02-23T03:31:45;7.30;99.90
23160;DHT22;11748;50.844;4.396;2024-02-23T03:34:11;7.00;99.90
23160;DHT22;11748;50.844;4.396;2024-02-23T03:36:38;7.20;99.90
23160;DHT22;11748;50.844;4.396;2024-02-23T03:39:04;7.20;99.90
23160;DHT22;11748;50.844;4.396;2024-02-23T03:41:29;7.20;99.90
23160;DHT22;11748;50.844;4.396;2024-02-23T03:43:55;7.20;99.90
23160;DHT22;11748;50.844;4.396;2024-02-23T03:46:21;7.20;99.90
23160;DHT22;11748;50.844;4.396;2024-02-23T03:48:47;7.20;99.90
23160;DHT22;11748;50.844;4.396;2024-02-23T03:51:12;7.40;99.90
23160;DHT22;11748;50.844;4.396;2024-02-23T03:53:38;7.30;99.90
23160;DHT22;11748;50.844;4.396;2024-02-23T03:56:04;7.50;99.90
23160;DHT22;11748;50.844;4.396;2024-02-23T03:58:30;7.60;99.90
23160;DHT22;11748;50.844;4.396;2024-02-23T04:00:55;7.60;99.90
23160;DHT22;11748;50.844;4.396;2024-02-23T04:03:21;7.70;99.90
23160;DHT22;11748;50.844;4.396;2024-02-23T04:05:47;7.70;99.90
23160;DHT22;11748;50.844;4.396;2024-02-23T04:08:12;7.80;99.90
23160;DHT22;11748;50.844;4.396;2024-02-23T04:10:38;7.80;99.90
23160;DHT22;11748;50.844;4.396;2024-02-23T04:13:04;7.70;99.90
23160;DHT22;11748;50.844;4.396;2024-02-23T04:15:33;7.70;99.90
23160;DHT22;11748;50.844;4.396;2024-02-23T04:17:58;7.40;99.90
23160;DHT22;11748;50.844;4.396;2024-02-23T04:20:24;7.50;99.90
23160;DHT22;11748;50.844;4.396;2024-02-23T04:22:50;7.30;99.90
23160;DHT22;11748;50.844;4.396;2024-02-23T04:25:16;7.30;99.90
23160;DHT22;11748;50.844;4.396;2024-02-23T04:27:41;7.40;99.90
23160;DHT22;11748;50.844;4.396;2024-02-23T04:30:09;7.50;99.90
23160;DHT22;11748;50.844;4.396;2024-02-23T04:32:39;7.60;99.90
23160;DHT22;11748;50.844;4.396;2024-02-23T04:35:05;7.60;99.90
23160;DHT22;11748;50.844;4.396;2024-02-23T04:37:31;7.60;99.90
23160;DHT22;11748;50.844;4.396;2024-02-23T04:39:56;7.70;99.90
23160;DHT22;11748;50.844;4.396;2024-02-23T04:42:22;7.70;99.90
23160;DHT22;11748;50.844;4.396;2024-02-23T04:44:49;7.70;99.90
23160;DHT22;11748;50.844;4.396;2024-02-23T04:47:15;7.60;99.90
23160;DHT22;11748;50.844;4.396;2024-02-23T04:49:41;7.60;99.90
23160;DHT22;11748;50.844;4.396;2024-02-23T04:52:07;7.70;99.90
23160;DHT22;11748;50.844;4.396;2024-02-23T04:54:34;7.70;99.90
23160;DHT22;11748;50.844;4.396;2024-02-23T04:57:01;7.80;99.90
23160;DHT22;11748;50.844;4.396;2024-02-23T04:59:28;7.70;99.90
23160;DHT22;11748;50.844;4.396;2024-02-23T05:01:57;7.80;99.90
23160;DHT22;11748;50.844;4.396;2024-02-23T05:04:25;7.80;99.90
23160;DHT22;11748;50.844;4.396;2024-02-23T05:06:54;7.70;99.90
23160;DHT22;11748;50.844;4.396;2024-02-23T05:09:20;7.80;99.90
23160;DHT22;11748;50.844;4.396;2024-02-23T05:11:47;7.80;99.90
23160;DHT22;11748;50.844;4.396;2024-02-23T05:14:16;7.70;99.90
23160;DHT22;11748;50.844;4.396;2024-02-23T05:16:41;7.80;99.90
23160;DHT22;11748;50.844;4.396;2024-02-23T05:19:07;7.90;99.90
23160;DHT22;11748;50.844;4.396;2024-02-23T05:21:33;7.80;99.90
23160;DHT22;11748;50.844;4.396;2024-02-23T05:24:00;7.80;99.90
23160;DHT22;11748;50.844;4.396;2024-02-23T05:26:27;7.70;99.90
23160;DHT22;11748;50.844;4.396;2024-02-23T05:28:53;7.80;99.90
23160;DHT22;11748;50.844;4.396;2024-02-23T05:31:48;7.80;99.90
23160;DHT22;11748;50.844;4.396;2024-02-23T05:34:20;7.80;99.90
23160;DHT22;11748;50.844;4.396;2024-02-23T05:36:46;7.80;99.90
23160;DHT22;11748;50.844;4.396;2024-02-23T05:39:14;7.70;99.90
23160;DHT22;11748;50.844;4.396;2024-02-23T05:41:48;7.40;99.90
23160;DHT22;11748;50.844;4.396;2024-02-23T05:44:18;7.50;99.90
23160;DHT22;11748;50.844;4.396;2024-02-23T05:46:47;7.60;99.90
23160;DHT22;11748;50.844;4.396;2024-02-23T05:49:14;7.50;99.90
23160;DHT22;11748;50.844;4.396;2024-02-23T05:51:46;7.50;99.90
23160;DHT22;11748;50.844;4.396;2024-02-23T05:54:12;7.60;99.90
23160;DHT22;11748;50.844;4.396;2024-02-23T05:56:37;7.60;99.90
23160;DHT22;11748;50.844;4.396;2024-02-23T05:59:04;7.60;99.90
23160;DHT22;11748;50.844;4.396;2024-02-23T06:01:50;7.60;99.90
23160;DHT22;11748;50.844;4.396;2024-02-23T06:04:24;7.50;99.90
23160;DHT22;11748;50.844;4.396;2024-02-23T06:06:53;7.50;99.90
23160;DHT22;11748;50.844;4.396;2024-02-23T06:09:18;7.60;99.90
23160;DHT22;11748;50.844;4.396;2024-02-23T06:11:44;7.70;99.90
23160;DHT22;11748;50.844;4.396;2024-02-23T06:14:11;7.70;99.90
23160;DHT22;11748;50.844;4.396;2024-02-23T06:16:37;7.70;99.90
23160;DHT22;11748;50.844;4.396;2024-02-23T06:19:04;7.60;99.90
23160;DHT22;11748;50.844;4.396;2024-02-23T06:21:31;7.60;99.90
23160;DHT22;11748;50.844;4.396;2024-02-23T06:23:58;7.70;99.90
23160;DHT22;11748;50.844;4.396;2024-02-23T06:26:26;7.60;99.90
23160;DHT22;11748;50.844;4.396;2024-02-23T06:28:52;7.50;99.90
23160;DHT22;11748;50.844;4.396;2024-02-23T06:31:18;7.30;99.90
23160;DHT22;11748;50.844;4.396;2024-02-23T06:33:47;7.30;99.90
23160;DHT22;11748;50.844;4.396;2024-02-23T06:36:14;7.40;99.90
23160;DHT22;11748;50.844;4.396;2024-02-23T06:38:41;7.40;99.90
23160;DHT22;11748;50.844;4.396;2024-02-23T06:41:08;7.60;99.90
23160;DHT22;11748;50.844;4.396;2024-02-23T06:43:36;7.70;99.90
23160;DHT22;11748;50.844;4.396;2024-02-23T06:46:08;7.70;99.90
23160;DHT22;11748;50.844;4.396;2024-02-23T06:48:35;7.70;99.90
23160;DHT22;11748;50.844;4.396;2024-02-23T06:51:01;7.70;99.90
23160;DHT22;11748;50.844;4.396;2024-02-23T06:53:27;7.70;99.90
23160;DHT22;11748;50.844;4.396;2024-02-23T06:55:53;7.80;99.90
23160;DHT22;11748;50.844;4.396;2024-02-23T06:58:18;7.90;99.90
23160;DHT22;11748;50.844;4.396;2024-02-23T07:00:44;7.90;99.90
23160;DHT22;11748;50.844;4.396;2024-02-23T07:03:10;7.90;99.90
23160;DHT22;11748;50.844;4.396;2024-02-23T07:05:35;7.90;99.90
23160;DHT22;11748;50.844;4.396;2024-02-23T07:08:01;8.00;99.90
23160;DHT22;11748;50.844;4.396;2024-02-23T07:10:27;8.00;99.90
23160;DHT22;11748;50.844;4.396;2024-02-23T07:12:53;7.80;99.90
23160;DHT22;11748;50.844;4.396;2024-02-23T07:15:20;7.70;99.90
23160;DHT22;11748;50.844;4.396;2024-02-23T07:17:46;7.70;99.90
23160;DHT22;11748;50.844;4.396;2024-02-23T07:20:12;7.80;99.90
23160;DHT22;11748;50.844;4.396;2024-02-23T07:22:42;7.90;99.90
23160;DHT22;11748;50.844;4.396;2024-02-23T07:25:10;8.00;99.90
23160;DHT22;11748;50.844;4.396;2024-02-23T07:27:35;8.10;99.90
23160;DHT22;11748;50.844;4.396;2024-02-23T07:30:02;8.00;99.90
23160;DHT22;11748;50.844;4.396;2024-02-23T07:32:30;7.90;99.90
23160;DHT22;11748;50.844;4.396;2024-02-23T07:34:56;8.00;99.90
23160;DHT22;11748;50.844;4.396;2024-02-23T07:37:21;8.00;99.90
23160;DHT22;11748;50.844;4.396;2024-02-23T07:39:47;8.20;99.90
23160;DHT22;11748;50.844;4.396;2024-02-23T07:42:13;8.40;99.90
23160;DHT22;11748;50.844;4.396;2024-02-23T07:44:44;8.50;99.90
23160;DHT22;11748;50.844;4.396;2024-02-23T07:47:10;8.50;99.90
23160;DHT22;11748;50.844;4.396;2024-02-23T07:49:36;8.50;99.90
23160;DHT22;11748;50.844;4.396;2024-02-23T07:52:02;8.60;99.90
23160;DHT22;11748;50.844;4.396;2024-02-23T07:54:28;8.60;99.90
23160;DHT22;11748;50.844;4.396;2024-02-23T07:56:54;8.40;99.90
23160;DHT22;11748;50.844;4.396;2024-02-23T07:59:19;8.70;99.90
23160;DHT22;11748;50.844;4.396;2024-02-23T08:01:45;8.70;99.90
23160;DHT22;11748;50.844;4.396;2024-02-23T08:04:13;8.80;99.90
23160;DHT22;11748;50.844;4.396;2024-02-23T08:06:39;8.60;99.90
23160;DHT22;11748;50.844;4.396;2024-02-23T08:09:05;8.70;99.90
23160;DHT22;11748;50.844;4.396;2024-02-23T08:11:32;8.70;99.90
23160;DHT22;11748;50.844;4.396;2024-02-23T08:13:58;8.40;99.90
23160;DHT22;11748;50.844;4.396;2024-02-23T08:16:24;8.40;99.90
23160;DHT22;11748;50.844;4.396;2024-02-23T08:18:49;8.50;99.90
23160;DHT22;11748;50.844;4.396;2024-02-23T08:21:15;8.50;99.90
23160;DHT22;11748;50.844;4.396;2024-02-23T08:23:41;8.40;99.90
23160;DHT22;11748;50.844;4.396;2024-02-23T08:26:08;8.30;99.90
23160;DHT22;11748;50.844;4.396;2024-02-23T08:28:36;8.30;99.90
23160;DHT22;11748;50.844;4.396;2024-02-23T08:31:02;8.00;99.90
23160;DHT22;11748;50.844;4.396;2024-02-23T08:33:28;8.00;99.90
23160;DHT22;11748;50.844;4.396;2024-02-23T08:35:54;7.90;99.90
23160;DHT22;11748;50.844;4.396;2024-02-23T08:38:20;7.90;99.90
23160;DHT22;11748;50.844;4.396;2024-02-23T08:40:45;7.80;99.90
23160;DHT22;11748;50.844;4.396;2024-02-23T08:43:13;7.80;99.90
23160;DHT22;11748;50.844;4.396;2024-02-23T08:45:40;7.90;99.90
23160;DHT22;11748;50.844;4.396;2024-02-23T08:48:07;7.80;99.90
23160;DHT22;11748;50.844;4.396;2024-02-23T08:50:34;7.80;99.90
23160;DHT22;11748;50.844;4.396;2024-02-23T08:53:00;7.90;99.90
23160;DHT22;11748;50.844;4.396;2024-02-23T08:55:25;7.90;99.90
23160;DHT22;11748;50.844;4.396;2024-02-23T08:57:51;7.90;99.90
23160;DHT22;11748;50.844;4.396;2024-02-23T09:00:17;7.90;99.90
23160;DHT22;11748;50.844;4.396;2024-02-23T09:02:43;7.80;99.90
23160;DHT22;11748;50.844;4.396;2024-02-23T09:05:09;7.60;99.90
23160;DHT22;11748;50.844;4.396;2024-02-23T09:07:35;7.70;99.90
23160;DHT22;11748;50.844;4.396;2024-02-23T09:10:04;7.70;99.90
23160;DHT22;11748;50.844;4.396;2024-02-23T09:12:40;7.80;99.90
23160;DHT22;11748;50.844;4.396;2024-02-23T09:15:07;7.80;99.90
23160;DHT22;11748;50.844;4.396;2024-02-23T09:17:34;7.80;99.90
23160;DHT22;11748;50.844;4.396;2024-02-23T09:19:59;7.80;99.90
23160;DHT22;11748;50.844;4.396;2024-02-23T09:22:26;7.90;99.90
23160;DHT22;11748;50.844;4.396;2024-02-23T09:24:53;8.00;99.90
23160;DHT22;11748;50.844;4.396;2024-02-23T09:27:20;8.10;99.90
23160;DHT22;11748;50.844;4.396;2024-02-23T09:29:46;8.10;99.90
23160;DHT22;11748;50.844;4.396;2024-02-23T09:32:12;8.00;99.90
23160;DHT22;11748;50.844;4.396;2024-02-23T09:34:38;8.20;99.90
23160;DHT22;11748;50.844;4.396;2024-02-23T09:37:04;8.40;99.90
23160;DHT22;11748;50.844;4.396;2024-02-23T09:39:30;8.50;99.90
23160;DHT22;11748;50.844;4.396;2024-02-23T09:41:56;8.60;99.90
23160;DHT22;11748;50.844;4.396;2024-02-23T09:44:28;8.70;99.90
23160;DHT22;11748;50.844;4.396;2024-02-23T09:46:58;8.80;99.90
23160;DHT22;11748;50.844;4.396;2024-02-23T09:49:24;8.70;99.90
23160;DHT22;11748;50.844;4.396;2024-02-23T09:51:50;8.70;99.90
23160;DHT22;11748;50.844;4.396;2024-02-23T09:54:15;8.40;99.90
23160;DHT22;11748;50.844;4.396;2024-02-23T09:56:41;8.60;99.90
23160;DHT22;11748;50.844;4.396;2024-02-23T09:59:07;8.80;99.90
23160;DHT22;11748;50.844;4.396;2024-02-23T10:01:33;8.90;99.90
23160;DHT22;11748;50.844;4.396;2024-02-23T10:04:00;9.00;99.90
23160;DHT22;11748;50.844;4.396;2024-02-23T10:06:27;9.10;99.90
23160;DHT22;11748;50.844;4.396;2024-02-23T10:08:53;9.20;99.90
23160;DHT22;11748;50.844;4.396;2024-02-23T10:11:23;9.10;99.90
23160;DHT22;11748;50.844;4.396;2024-02-23T10:13:49;9.00;99.90
23160;DHT22;11748;50.844;4.396;2024-02-23T10:16:16;8.90;99.90
23160;DHT22;11748;50.844;4.396;2024-02-23T10:18:42;9.10;99.90
23160;DHT22;11748;50.844;4.396;2024-02-23T10:21:08;9.30;99.90
23160;DHT22;11748;50.844;4.396;2024-02-23T10:23:34;9.50;99.90
23160;DHT22;11748;50.844;4.396;2024-02-23T10:26:00;9.40;99.90
23160;DHT22;11748;50.844;4.396;2024-02-23T10:28:27;9.60;99.90
23160;DHT22;11748;50.844;4.396;2024-02-23T10:30:53;9.70;99.90
23160;DHT22;11748;50.844;4.396;2024-02-23T10:33:22;9.60;99.90
23160;DHT22;11748;50.844;4.396;2024-02-23T10:35:53;9.40;99.90
23160;DHT22;11748;50.844;4.396;2024-02-23T10:38:21;9.50;99.90
23160;DHT22;11748;50.844;4.396;2024-02-23T10:40:49;9.70;99.90
23160;DHT22;11748;50.844;4.396;2024-02-23T10:43:17;9.70;99.90
23160;DHT22;11748;50.844;4.396;2024-02-23T10:45:45;9.80;99.90
23160;DHT22;11748;50.844;4.396;2024-02-23T10:48:11;9.80;99.90
23160;DHT22;11748;50.844;4.396;2024-02-23T10:50:38;9.80;99.90
23160;DHT22;11748;50.844;4.396;2024-02-23T10:53:07;9.70;99.90
23160;DHT22;11748;50.844;4.396;2024-02-23T10:55:37;9.60;99.90
23160;DHT22;11748;50.844;4.396;2024-02-23T10:58:06;9.40;99.90
23160;DHT22;11748;50.844;4.396;2024-02-23T11:00:34;9.60;99.90
23160;DHT22;11748;50.844;4.396;2024-02-23T11:03:01;9.70;99.90
23160;DHT22;11748;50.844;4.396;2024-02-23T11:05:28;10.00;99.90
23160;DHT22;11748;50.844;4.396;2024-02-23T11:07:58;10.20;99.90
23160;DHT22;11748;50.844;4.396;2024-02-23T11:10:24;10.20;99.90
23160;DHT22;11748;50.844;4.396;2024-02-23T11:13:07;9.90;99.90
23160;DHT22;11748;50.844;4.396;2024-02-23T11:15:33;9.80;99.90
23160;DHT22;11748;50.844;4.396;2024-02-23T11:18:21;9.70;99.90
23160;DHT22;11748;50.844;4.396;2024-02-23T11:20:54;9.90;99.90
23160;DHT22;11748;50.844;4.396;2024-02-23T11:23:20;9.70;99.90
23160;DHT22;11748;50.844;4.396;2024-02-23T11:26:05;9.70;99.90
23160;DHT22;11748;50.844;4.396;2024-02-23T11:28:32;9.90;99.90
23160;DHT22;11748;50.844;4.396;2024-02-23T11:30:58;9.90;99.90
23160;DHT22;11748;50.844;4.396;2024-02-23T11:33:28;10.10;99.90
23160;DHT22;11748;50.844;4.396;2024-02-23T11:36:05;10.20;99.90
23160;DHT22;11748;50.844;4.396;2024-02-23T11:38:32;10.20;99.90
23160;DHT22;11748;50.844;4.396;2024-02-23T11:41:00;10.40;99.90
23160;DHT22;11748;50.844;4.396;2024-02-23T11:43:26;10.50;99.90
23160;DHT22;11748;50.844;4.396;2024-02-23T11:45:53;10.60;99.90
23160;DHT22;11748;50.844;4.396;2024-02-23T11:48:18;10.80;99.90
23160;DHT22;11748;50.844;4.396;2024-02-23T11:50:45;10.80;99.90
23160;DHT22;11748;50.844;4.396;2024-02-23T11:53:10;10.70;99.90
23160;DHT22;11748;50.844;4.396;2024-02-23T11:55:36;10.50;99.90
23160;DHT22;11748;50.844;4.396;2024-02-23T11:58:02;10.40;99.90
23160;DHT22;11748;50.844;4.396;2024-02-23T12:00:28;10.00;99.90
23160;DHT22;11748;50.844;4.396;2024-02-23T12:02:56;10.00;99.90
23160;DHT22;11748;50.844;4.396;2024-02-23T12:05:22;10.20;99.90
23160;DHT22;11748;50.844;4.396;2024-02-23T12:07:48;10.50;99.90
23160;DHT22;11748;50.844;4.396;2024-02-23T12:10:14;10.50;99.90
23160;DHT22;11748;50.844;4.396;2024-02-23T12:12:39;10.50;99.90
23160;DHT22;11748;50.844;4.396;2024-02-23T12:15:06;10.30;99.90
23160;DHT22;11748;50.844;4.396;2024-02-23T12:17:31;10.40;99.90
23160;DHT22;11748;50.844;4.396;2024-02-23T12:20:01;10.50;99.90
23160;DHT22;11748;50.844;4.396;2024-02-23T12:22:26;10.40;99.90
23160;DHT22;11748;50.844;4.396;2024-02-23T12:24:52;10.30;99.90
23160;DHT22;11748;50.844;4.396;2024-02-23T12:27:19;10.60;99.90
23160;DHT22;11748;50.844;4.396;2024-02-23T12:29:54;10.70;99.90
23160;DHT22;11748;50.844;4.396;2024-02-23T12:32:20;10.70;99.90
23160;DHT22;11748;50.844;4.396;2024-02-23T12:34:46;10.70;99.90
23160;DHT22;11748;50.844;4.396;2024-02-23T12:37:15;10.60;99.90
23160;DHT22;11748;50.844;4.396;2024-02-23T12:39:41;10.60;99.90
23160;DHT22;11748;50.844;4.396;2024-02-23T12:42:08;10.60;99.90
23160;DHT22;11748;50.844;4.396;2024-02-23T12:44:33;10.80;99.90
23160;DHT22;11748;50.844;4.396;2024-02-23T12:46:59;10.90;99.90
23160;DHT22;11748;50.844;4.396;2024-02-23T12:49:24;11.10;99.90
23160;DHT22;11748;50.844;4.396;2024-02-23T12:51:50;11.10;99.90
23160;DHT22;11748;50.844;4.396;2024-02-23T12:54:16;11.00;99.90
23160;DHT22;11748;50.844;4.396;2024-02-23T12:56:42;10.90;99.90
23160;DHT22;11748;50.844;4.396;2024-02-23T12:59:08;10.70;99.90
23160;DHT22;11748;50.844;4.396;2024-02-23T13:01:35;10.90;99.90
23160;DHT22;11748;50.844;4.396;2024-02-23T13:04:03;11.10;99.90
23160;DHT22;11748;50.844;4.396;2024-02-23T13:06:36;11.10;99.90
23160;DHT22;11748;50.844;4.396;2024-02-23T13:09:17;11.10;99.90
23160;DHT22;11748;50.844;4.396;2024-02-23T13:11:45;11.00;99.90
23160;DHT22;11748;50.844;4.396;2024-02-23T13:14:12;11.00;99.90
23160;DHT22;11748;50.844;4.396;2024-02-23T13:16:38;11.00;99.90
23160;DHT22;11748;50.844;4.396;2024-02-23T13:19:04;10.90;99.90
23160;DHT22;11748;50.844;4.396;2024-02-23T13:21:29;10.90;99.90
23160;DHT22;11748;50.844;4.396;2024-02-23T13:23:57;11.10;99.90
23160;DHT22;11748;50.844;4.396;2024-02-23T13:26:25;11.20;99.90
23160;DHT22;11748;50.844;4.396;2024-02-23T13:28:51;11.20;99.90
23160;DHT22;11748;50.844;4.396;2024-02-23T13:31:16;11.30;99.90
23160;DHT22;11748;50.844;4.396;2024-02-23T13:33:42;11.10;99.90
23160;DHT22;11748;50.844;4.396;2024-02-23T13:36:09;11.10;99.90
23160;DHT22;11748;50.844;4.396;2024-02-23T13:38:38;11.10;99.90
23160;DHT22;11748;50.844;4.396;2024-02-23T13:41:06;11.30;99.90
23160;DHT22;11748;50.844;4.396;2024-02-23T13:43:31;11.30;99.90
23160;DHT22;11748;50.844;4.396;2024-02-23T13:45:59;11.40;99.90
23160;DHT22;11748;50.844;4.396;2024-02-23T13:48:24;11.30;99.90
23160;DHT22;11748;50.844;4.396;2024-02-23T13:50:50;11.40;99.90
23160;DHT22;11748;50.844;4.396;2024-02-23T13:53:16;11.20;99.90
23160;DHT22;11748;50.844;4.396;2024-02-23T13:55:42;11.30;99.90
23160;DHT22;11748;50.844;4.396;2024-02-23T13:58:09;11.40;99.90
23160;DHT22;11748;50.844;4.396;2024-02-23T14:00:35;11.30;99.90
23160;DHT22;11748;50.844;4.396;2024-02-23T14:03:01;11.00;99.90
23160;DHT22;11748;50.844;4.396;2024-02-23T14:05:26;11.00;99.90
23160;DHT22;11748;50.844;4.396;2024-02-23T14:07:54;11.10;99.90
23160;DHT22;11748;50.844;4.396;2024-02-23T14:10:20;11.00;99.90
23160;DHT22;11748;50.844;4.396;2024-02-23T14:12:46;11.10;99.90
23160;DHT22;11748;50.844;4.396;2024-02-23T14:15:12;11.20;99.90
23160;DHT22;11748;50.844;4.396;2024-02-23T14:17:40;11.30;99.90
23160;DHT22;11748;50.844;4.396;2024-02-23T14:20:06;11.20;99.90
23160;DHT22;11748;50.844;4.396;2024-02-23T14:22:33;11.10;99.90
23160;DHT22;11748;50.844;4.396;2024-02-23T14:24:59;10.90;99.90
23160;DHT22;11748;50.844;4.396;2024-02-23T14:27:25;11.10;99.90
23160;DHT22;11748;50.844;4.396;2024-02-23T14:29:52;11.10;99.90
23160;DHT22;11748;50.844;4.396;2024-02-23T14:32:17;11.20;99.90
23160;DHT22;11748;50.844;4.396;2024-02-23T14:34:43;11.20;99.90
23160;DHT22;11748;50.844;4.396;2024-02-23T14:37:10;11.30;99.90
23160;DHT22;11748;50.844;4.396;2024-02-23T14:39:37;11.00;99.90
23160;DHT22;11748;50.844;4.396;2024-02-23T14:42:03;11.00;99.90
23160;DHT22;11748;50.844;4.396;2024-02-23T14:44:29;10.90;99.90
23160;DHT22;11748;50.844;4.396;2024-02-23T14:46:55;11.00;99.90
23160;DHT22;11748;50.844;4.396;2024-02-23T14:49:21;11.10;99.90
23160;DHT22;11748;50.844;4.396;2024-02-23T14:51:47;11.10;99.90
23160;DHT22;11748;50.844;4.396;2024-02-23T14:54:14;11.10;99.90
23160;DHT22;11748;50.844;4.396;2024-02-23T14:56:41;11.20;99.90
23160;DHT22;11748;50.844;4.396;2024-02-23T14:59:07;11.40;99.90
23160;DHT22;11748;50.844;4.396;2024-02-23T15:01:39;11.20;99.90
23160;DHT22;11748;50.844;4.396;2024-02-23T15:04:08;11.20;99.90
23160;DHT22;11748;50.844;4.396;2024-02-23T15:06:34;11.20;99.90
23160;DHT22;11748;50.844;4.396;2024-02-23T15:09:00;11.20;99.90
23160;DHT22;11748;50.844;4.396;2024-02-23T15:11:26;11.10;99.90
23160;DHT22;11748;50.844;4.396;2024-02-23T15:13:52;10.60;99.90
23160;DHT22;11748;50.844;4.396;2024-02-23T15:16:32;10.80;99.90
23160;DHT22;11748;50.844;4.396;2024-02-23T15:18:57;11.00;99.90
23160;DHT22;11748;50.844;4.396;2024-02-23T15:21:24;11.10;99.90
23160;DHT22;11748;50.844;4.396;2024-02-23T15:23:50;11.00;99.90
23160;DHT22;11748;50.844;4.396;2024-02-23T15:26:18;10.80;99.90
23160;DHT22;11748;50.844;4.396;2024-02-23T15:28:45;10.90;99.90
23160;DHT22;11748;50.844;4.396;2024-02-23T15:31:14;10.80;99.90
23160;DHT22;11748;50.844;4.396;2024-02-23T15:33:40;10.90;99.90
23160;DHT22;11748;50.844;4.396;2024-02-23T15:36:07;10.90;99.90
23160;DHT22;11748;50.844;4.396;2024-02-23T15:38:34;10.90;99.90
23160;DHT22;11748;50.844;4.396;2024-02-23T15:41:01;10.80;99.90